sensor_id;sensor_type;location;lat;lon;timestamp;P1;durP1;ratioP1;P2;durP2;ratioP2
34896;SDS011;43407;51.828;-2.298;2023-05-10T00:00:09;4.15;;;2.95;;
34896;SDS011;43407;51.828;-2.298;2023-05-10T00:02:35;4.47;;;3.40;;
34896;SDS011;43407;51.828;-2.298;2023-05-10T00:05:01;4.55;;;2.97;;
34896;SDS011;43407;51.828;-2.298;2023-05-10T00:07:26;5.75;;;2.80;;
34896;SDS011;43407;51.828;-2.298;2023-05-10T00:09:52;4.50;;;2.97;;
34896;SDS011;43407;51.828;-2.298;2023-05-10T00:12:18;3.00;;;2.58;;
34896;SDS011;43407;51.828;-2.298;2023-05-10T00:14:43;2.72;;;2.53;;
34896;SDS011;43407;51.828;-2.298;2023-05-10T00:17:09;4.70;;;3.00;;
34896;SDS011;43407;51.828;-2.298;2023-05-10T00:19:34;6.35;;;2.90;;
34896;SDS011;43407;51.828;-2.298;2023-05-10T00:22:00;4.03;;;2.80;;
34896;SDS011;43407;51.828;-2.298;2023-05-10T00:24:25;4.10;;;2.92;;
34896;SDS011;43407;51.828;-2.298;2023-05-10T00:26:51;2.50;;;2.30;;
34896;SDS011;43407;51.828;-2.298;2023-05-10T00:29:16;4.97;;;2.90;;
34896;SDS011;43407;51.828;-2.298;2023-05-10T00:31:42;3.05;;;2.58;;
34896;SDS011;43407;51.828;-2.298;2023-05-10T00:34:07;4.10;;;2.72;;
34896;SDS011;43407;51.828;-2.298;2023-05-10T00:36:33;4.30;;;2.90;;
34896;SDS011;43407;51.828;-2.298;2023-05-10T00:38:58;4.47;;;2.80;;
34896;SDS011;43407;51.828;-2.298;2023-05-10T00:41:24;4.15;;;2.80;;
34896;SDS011;43407;51.828;-2.298;2023-05-10T00:43:49;3.03;;;2.60;;
34896;SDS011;43407;51.828;-2.298;2023-05-10T00:46:15;4.93;;;2.42;;
34896;SDS011;43407;51.828;-2.298;2023-05-10T00:48:41;5.10;;;2.67;;
34896;SDS011;43407;51.828;-2.298;2023-05-10T00:51:07;2.63;;;2.20;;
34896;SDS011;43407;51.828;-2.298;2023-05-10T00:53:33;3.05;;;2.40;;
34896;SDS011;43407;51.828;-2.298;2023-05-10T00:55:59;7.90;;;2.88;;
34896;SDS011;43407;51.828;-2.298;2023-05-10T00:58:25;3.30;;;2.40;;
34896;SDS011;43407;51.828;-2.298;2023-05-10T01:00:53;5.30;;;2.83;;
34896;SDS011;43407;51.828;-2.298;2023-05-10T01:03:21;4.85;;;2.60;;
34896;SDS011;43407;51.828;-2.298;2023-05-10T01:05:46;3.60;;;2.78;;
34896;SDS011;43407;51.828;-2.298;2023-05-10T01:08:12;3.83;;;2.30;;
34896;SDS011;43407;51.828;-2.298;2023-05-10T01:10:37;4.78;;;2.75;;
34896;SDS011;43407;51.828;-2.298;2023-05-10T01:13:03;4.43;;;2.40;;
34896;SDS011;43407;51.828;-2.298;2023-05-10T01:15:28;5.35;;;2.55;;
34896;SDS011;43407;51.828;-2.298;2023-05-10T01:17:55;4.43;;;2.63;;
34896;SDS011;43407;51.828;-2.298;2023-05-10T01:20:21;3.55;;;2.40;;
34896;SDS011;43407;51.828;-2.298;2023-05-10T01:31:18;5.97;;;2.50;;
34896;SDS011;43407;51.828;-2.298;2023-05-10T01:34:07;5.53;;;2.50;;
34896;SDS011;43407;51.828;-2.298;2023-05-10T01:39:17;4.47;;;2.58;;
34896;SDS011;43407;51.828;-2.298;2023-05-10T01:42:36;9.05;;;2.50;;
34896;SDS011;43407;51.828;-2.298;2023-05-10T01:45:00;7.95;;;2.28;;
34896;SDS011;43407;51.828;-2.298;2023-05-10T01:47:38;4.40;;;2.47;;
34896;SDS011;43407;51.828;-2.298;2023-05-10T01:50:08;4.32;;;2.08;;
34896;SDS011;43407;51.828;-2.298;2023-05-10T01:52:41;8.40;;;2.53;;
34896;SDS011;43407;51.828;-2.298;2023-05-10T01:55:09;6.88;;;2.85;;
34896;SDS011;43407;51.828;-2.298;2023-05-10T01:57:39;3.17;;;2.08;;
34896;SDS011;43407;51.828;-2.298;2023-05-10T02:00:06;5.68;;;2.25;;
34896;SDS011;43407;51.828;-2.298;2023-05-10T02:02:33;5.03;;;2.25;;
34896;SDS011;43407;51.828;-2.298;2023-05-10T02:05:02;2.60;;;1.88;;
34896;SDS011;43407;51.828;-2.298;2023-05-10T02:07:29;3.92;;;2.30;;
34896;SDS011;43407;51.828;-2.298;2023-05-10T02:09:55;3.40;;;2.45;;
34896;SDS011;43407;51.828;-2.298;2023-05-10T02:12:21;7.85;;;2.30;;
34896;SDS011;43407;51.828;-2.298;2023-05-10T02:14:47;6.07;;;2.30;;
34896;SDS011;43407;51.828;-2.298;2023-05-10T02:17:13;4.82;;;2.20;;
34896;SDS011;43407;51.828;-2.298;2023-05-10T02:19:40;4.18;;;2.30;;
34896;SDS011;43407;51.828;-2.298;2023-05-10T02:22:06;5.43;;;2.20;;
34896;SDS011;43407;51.828;-2.298;2023-05-10T02:24:33;2.95;;;2.03;;
34896;SDS011;43407;51.828;-2.298;2023-05-10T02:26:59;3.83;;;2.00;;
34896;SDS011;43407;51.828;-2.298;2023-05-10T02:29:25;6.20;;;2.70;;
34896;SDS011;43407;51.828;-2.298;2023-05-10T02:31:52;3.25;;;2.50;;
34896;SDS011;43407;51.828;-2.298;2023-05-10T02:34:20;5.60;;;2.38;;
34896;SDS011;43407;51.828;-2.298;2023-05-10T02:36:46;6.60;;;2.70;;
34896;SDS011;43407;51.828;-2.298;2023-05-10T02:39:12;4.88;;;2.67;;
34896;SDS011;43407;51.828;-2.298;2023-05-10T02:41:39;4.50;;;2.70;;
34896;SDS011;43407;51.828;-2.298;2023-05-10T02:44:06;6.57;;;2.60;;
34896;SDS011;43407;51.828;-2.298;2023-05-10T02:46:33;3.50;;;1.80;;
34896;SDS011;43407;51.828;-2.298;2023-05-10T02:48:58;3.72;;;2.28;;
34896;SDS011;43407;51.828;-2.298;2023-05-10T02:51:25;6.53;;;2.25;;
34896;SDS011;43407;51.828;-2.298;2023-05-10T02:53:53;7.22;;;2.63;;
34896;SDS011;43407;51.828;-2.298;2023-05-10T02:56:23;3.97;;;2.50;;
34896;SDS011;43407;51.828;-2.298;2023-05-10T02:58:51;6.03;;;2.65;;
34896;SDS011;43407;51.828;-2.298;2023-05-10T03:01:17;7.55;;;2.55;;
34896;SDS011;43407;51.828;-2.298;2023-05-10T03:03:42;7.30;;;2.83;;
34896;SDS011;43407;51.828;-2.298;2023-05-10T03:06:07;5.72;;;2.80;;
34896;SDS011;43407;51.828;-2.298;2023-05-10T03:08:34;3.13;;;2.17;;
34896;SDS011;43407;51.828;-2.298;2023-05-10T03:13:29;5.65;;;2.90;;
34896;SDS011;43407;51.828;-2.298;2023-05-10T03:16:14;7.35;;;3.20;;
34896;SDS011;43407;51.828;-2.298;2023-05-10T03:18:48;3.28;;;2.58;;
34896;SDS011;43407;51.828;-2.298;2023-05-10T03:21:19;4.10;;;2.40;;
34896;SDS011;43407;51.828;-2.298;2023-05-10T03:23:50;7.82;;;2.80;;
34896;SDS011;43407;51.828;-2.298;2023-05-10T03:26:18;5.32;;;2.70;;
34896;SDS011;43407;51.828;-2.298;2023-05-10T03:28:47;4.05;;;2.40;;
34896;SDS011;43407;51.828;-2.298;2023-05-10T03:31:13;8.25;;;3.30;;
34896;SDS011;43407;51.828;-2.298;2023-05-10T03:33:48;6.78;;;3.08;;
34896;SDS011;43407;51.828;-2.298;2023-05-10T03:36:14;6.25;;;3.20;;
34896;SDS011;43407;51.828;-2.298;2023-05-10T03:38:41;4.65;;;2.92;;
34896;SDS011;43407;51.828;-2.298;2023-05-10T03:41:06;6.07;;;3.08;;
34896;SDS011;43407;51.828;-2.298;2023-05-10T03:43:32;6.40;;;3.42;;
34896;SDS011;43407;51.828;-2.298;2023-05-10T03:45:57;11.13;;;3.85;;
34896;SDS011;43407;51.828;-2.298;2023-05-10T03:48:23;10.05;;;3.85;;
34896;SDS011;43407;51.828;-2.298;2023-05-10T03:50:48;13.55;;;4.30;;
34896;SDS011;43407;51.828;-2.298;2023-05-10T03:53:14;11.40;;;4.25;;
34896;SDS011;43407;51.828;-2.298;2023-05-10T03:55:40;9.98;;;5.10;;
34896;SDS011;43407;51.828;-2.298;2023-05-10T03:58:06;16.05;;;5.35;;
34896;SDS011;43407;51.828;-2.298;2023-05-10T04:00:31;8.05;;;4.80;;
34896;SDS011;43407;51.828;-2.298;2023-05-10T04:02:57;9.60;;;4.38;;
34896;SDS011;43407;51.828;-2.298;2023-05-10T04:05:23;13.90;;;5.40;;
34896;SDS011;43407;51.828;-2.298;2023-05-10T04:07:48;10.52;;;4.70;;
34896;SDS011;43407;51.828;-2.298;2023-05-10T04:10:14;11.88;;;4.95;;
34896;SDS011;43407;51.828;-2.298;2023-05-10T04:12:41;8.43;;;5.03;;
34896;SDS011;43407;51.828;-2.298;2023-05-10T04:15:07;9.00;;;4.90;;
34896;SDS011;43407;51.828;-2.298;2023-05-10T04:17:33;11.13;;;5.35;;
34896;SDS011;43407;51.828;-2.298;2023-05-10T04:19:58;9.80;;;4.63;;
34896;SDS011;43407;51.828;-2.298;2023-05-10T04:22:24;11.95;;;6.07;;
34896;SDS011;43407;51.828;-2.298;2023-05-10T04:24:49;10.48;;;6.25;;
34896;SDS011;43407;51.828;-2.298;2023-05-10T04:27:15;12.27;;;6.25;;
34896;SDS011;43407;51.828;-2.298;2023-05-10T04:29:40;8.85;;;5.68;;
34896;SDS011;43407;51.828;-2.298;2023-05-10T04:32:06;14.40;;;7.00;;
34896;SDS011;43407;51.828;-2.298;2023-05-10T04:34:32;15.60;;;8.15;;
34896;SDS011;43407;51.828;-2.298;2023-05-10T04:36:59;14.00;;;6.25;;
34896;SDS011;43407;51.828;-2.298;2023-05-10T04:39:24;14.00;;;7.40;;
34896;SDS011;43407;51.828;-2.298;2023-05-10T04:41:50;12.95;;;7.88;;
34896;SDS011;43407;51.828;-2.298;2023-05-10T04:44:15;17.95;;;6.97;;
34896;SDS011;43407;51.828;-2.298;2023-05-10T04:46:41;14.30;;;6.78;;
34896;SDS011;43407;51.828;-2.298;2023-05-10T04:49:06;16.55;;;7.45;;
34896;SDS011;43407;51.828;-2.298;2023-05-10T04:51:32;14.27;;;7.43;;
34896;SDS011;43407;51.828;-2.298;2023-05-10T04:53:57;12.57;;;8.02;;
34896;SDS011;43407;51.828;-2.298;2023-05-10T04:56:23;17.48;;;9.43;;
34896;SDS011;43407;51.828;-2.298;2023-05-10T04:58:48;11.68;;;7.75;;
34896;SDS011;43407;51.828;-2.298;2023-05-10T05:01:14;11.70;;;7.28;;
34896;SDS011;43407;51.828;-2.298;2023-05-10T05:03:40;15.02;;;8.27;;
34896;SDS011;43407;51.828;-2.298;2023-05-10T05:06:05;14.10;;;8.27;;
34896;SDS011;43407;51.828;-2.298;2023-05-10T05:08:31;12.95;;;8.43;;
34896;SDS011;43407;51.828;-2.298;2023-05-10T05:10:57;18.38;;;10.18;;
34896;SDS011;43407;51.828;-2.298;2023-05-10T05:13:22;12.60;;;7.50;;
34896;SDS011;43407;51.828;-2.298;2023-05-10T05:15:48;19.10;;;10.25;;
34896;SDS011;43407;51.828;-2.298;2023-05-10T05:18:13;19.55;;;9.00;;
34896;SDS011;43407;51.828;-2.298;2023-05-10T05:20:39;16.75;;;9.32;;
34896;SDS011;43407;51.828;-2.298;2023-05-10T05:23:04;11.60;;;8.20;;
34896;SDS011;43407;51.828;-2.298;2023-05-10T05:25:30;14.95;;;8.82;;
34896;SDS011;43407;51.828;-2.298;2023-05-10T05:27:55;15.02;;;7.72;;
34896;SDS011;43407;51.828;-2.298;2023-05-10T05:30:21;15.05;;;8.02;;
34896;SDS011;43407;51.828;-2.298;2023-05-10T05:32:46;15.98;;;8.85;;
34896;SDS011;43407;51.828;-2.298;2023-05-10T05:35:12;13.77;;;8.60;;
34896;SDS011;43407;51.828;-2.298;2023-05-10T05:37:38;12.57;;;8.35;;
34896;SDS011;43407;51.828;-2.298;2023-05-10T05:40:03;17.00;;;8.65;;
34896;SDS011;43407;51.828;-2.298;2023-05-10T05:42:30;16.40;;;9.73;;
34896;SDS011;43407;51.828;-2.298;2023-05-10T05:44:56;15.55;;;9.00;;
34896;SDS011;43407;51.828;-2.298;2023-05-10T05:47:21;16.33;;;8.95;;
34896;SDS011;43407;51.828;-2.298;2023-05-10T05:49:47;15.60;;;9.35;;
34896;SDS011;43407;51.828;-2.298;2023-05-10T05:52:12;16.85;;;8.57;;
34896;SDS011;43407;51.828;-2.298;2023-05-10T05:54:38;13.30;;;7.78;;
34896;SDS011;43407;51.828;-2.298;2023-05-10T05:57:04;12.50;;;7.72;;
34896;SDS011;43407;51.828;-2.298;2023-05-10T05:59:29;14.57;;;7.57;;
34896;SDS011;43407;51.828;-2.298;2023-05-10T06:01:55;15.98;;;7.35;;
34896;SDS011;43407;51.828;-2.298;2023-05-10T06:04:20;12.40;;;6.25;;
34896;SDS011;43407;51.828;-2.298;2023-05-10T06:06:46;9.15;;;5.65;;
34896;SDS011;43407;51.828;-2.298;2023-05-10T06:09:11;8.98;;;5.72;;
34896;SDS011;43407;51.828;-2.298;2023-05-10T06:11:37;11.13;;;5.10;;
34896;SDS011;43407;51.828;-2.298;2023-05-10T06:14:03;11.45;;;5.43;;
34896;SDS011;43407;51.828;-2.298;2023-05-10T06:16:33;12.95;;;5.18;;
34896;SDS011;43407;51.828;-2.298;2023-05-10T06:18:59;7.53;;;4.55;;
34896;SDS011;43407;51.828;-2.298;2023-05-10T06:21:24;9.43;;;4.90;;
34896;SDS011;43407;51.828;-2.298;2023-05-10T06:23:50;10.38;;;5.10;;
34896;SDS011;43407;51.828;-2.298;2023-05-10T06:26:16;7.28;;;4.25;;
34896;SDS011;43407;51.828;-2.298;2023-05-10T06:28:41;6.78;;;4.40;;
34896;SDS011;43407;51.828;-2.298;2023-05-10T06:31:07;10.65;;;5.25;;
34896;SDS011;43407;51.828;-2.298;2023-05-10T06:33:32;6.60;;;3.88;;
34896;SDS011;43407;51.828;-2.298;2023-05-10T06:35:58;9.45;;;4.35;;
34896;SDS011;43407;51.828;-2.298;2023-05-10T06:38:24;8.63;;;4.30;;
34896;SDS011;43407;51.828;-2.298;2023-05-10T06:40:50;7.88;;;4.47;;
34896;SDS011;43407;51.828;-2.298;2023-05-10T06:43:16;9.57;;;4.47;;
34896;SDS011;43407;51.828;-2.298;2023-05-10T06:45:42;6.28;;;4.10;;
34896;SDS011;43407;51.828;-2.298;2023-05-10T06:48:07;7.75;;;3.88;;
34896;SDS011;43407;51.828;-2.298;2023-05-10T06:50:33;9.15;;;5.00;;
34896;SDS011;43407;51.828;-2.298;2023-05-10T06:52:59;8.55;;;4.70;;
34896;SDS011;43407;51.828;-2.298;2023-05-10T06:55:25;9.20;;;4.22;;
34896;SDS011;43407;51.828;-2.298;2023-05-10T06:57:51;6.25;;;4.38;;
34896;SDS011;43407;51.828;-2.298;2023-05-10T07:00:17;6.85;;;3.90;;
34896;SDS011;43407;51.828;-2.298;2023-05-10T07:02:43;8.30;;;4.00;;
34896;SDS011;43407;51.828;-2.298;2023-05-10T07:05:09;6.82;;;3.78;;
34896;SDS011;43407;51.828;-2.298;2023-05-10T07:07:35;7.88;;;3.88;;
34896;SDS011;43407;51.828;-2.298;2023-05-10T07:10:00;8.43;;;3.85;;
34896;SDS011;43407;51.828;-2.298;2023-05-10T07:12:26;6.13;;;3.70;;
34896;SDS011;43407;51.828;-2.298;2023-05-10T07:14:51;5.57;;;3.10;;
34896;SDS011;43407;51.828;-2.298;2023-05-10T07:17:17;6.07;;;3.70;;
34896;SDS011;43407;51.828;-2.298;2023-05-10T07:19:42;7.18;;;3.25;;
34896;SDS011;43407;51.828;-2.298;2023-05-10T07:22:08;7.63;;;2.85;;
34896;SDS011;43407;51.828;-2.298;2023-05-10T07:24:34;7.78;;;2.55;;
34896;SDS011;43407;51.828;-2.298;2023-05-10T07:26:59;4.72;;;2.40;;
34896;SDS011;43407;51.828;-2.298;2023-05-10T07:29:25;5.47;;;2.33;;
34896;SDS011;43407;51.828;-2.298;2023-05-10T07:31:50;5.80;;;2.30;;
34896;SDS011;43407;51.828;-2.298;2023-05-10T07:34:16;7.85;;;2.80;;
34896;SDS011;43407;51.828;-2.298;2023-05-10T07:36:41;4.70;;;2.72;;
34896;SDS011;43407;51.828;-2.298;2023-05-10T07:39:07;6.07;;;3.10;;
34896;SDS011;43407;51.828;-2.298;2023-05-10T07:41:32;6.25;;;2.30;;
34896;SDS011;43407;51.828;-2.298;2023-05-10T07:43:58;5.97;;;2.50;;
34896;SDS011;43407;51.828;-2.298;2023-05-10T07:46:23;9.55;;;2.55;;
34896;SDS011;43407;51.828;-2.298;2023-05-10T07:48:49;6.45;;;2.33;;
34896;SDS011;43407;51.828;-2.298;2023-05-10T07:51:14;6.65;;;2.45;;
34896;SDS011;43407;51.828;-2.298;2023-05-10T07:53:40;5.10;;;2.15;;
34896;SDS011;43407;51.828;-2.298;2023-05-10T07:58:51;8.13;;;2.60;;
34896;SDS011;43407;51.828;-2.298;2023-05-10T08:01:17;4.60;;;2.20;;
34896;SDS011;43407;51.828;-2.298;2023-05-10T08:03:42;7.05;;;2.10;;
34896;SDS011;43407;51.828;-2.298;2023-05-10T08:06:08;9.55;;;2.30;;
34896;SDS011;43407;51.828;-2.298;2023-05-10T08:08:33;4.93;;;1.98;;
34896;SDS011;43407;51.828;-2.298;2023-05-10T08:10:59;6.38;;;2.03;;
34896;SDS011;43407;51.828;-2.298;2023-05-10T08:13:24;6.57;;;1.95;;
34896;SDS011;43407;51.828;-2.298;2023-05-10T08:15:50;6.88;;;2.08;;
34896;SDS011;43407;51.828;-2.298;2023-05-10T08:18:18;7.20;;;2.75;;
34896;SDS011;43407;51.828;-2.298;2023-05-10T08:20:43;5.40;;;2.05;;
34896;SDS011;43407;51.828;-2.298;2023-05-10T08:23:09;8.45;;;2.28;;
34896;SDS011;43407;51.828;-2.298;2023-05-10T08:25:34;3.80;;;2.08;;
34896;SDS011;43407;51.828;-2.298;2023-05-10T08:28:00;7.60;;;2.30;;
34896;SDS011;43407;51.828;-2.298;2023-05-10T08:30:25;6.70;;;2.20;;
34896;SDS011;43407;51.828;-2.298;2023-05-10T08:32:51;8.38;;;2.40;;
34896;SDS011;43407;51.828;-2.298;2023-05-10T08:35:16;7.38;;;2.35;;
34896;SDS011;43407;51.828;-2.298;2023-05-10T08:37:42;6.75;;;2.67;;
34896;SDS011;43407;51.828;-2.298;2023-05-10T08:40:08;7.13;;;2.22;;
34896;SDS011;43407;51.828;-2.298;2023-05-10T08:42:36;7.10;;;2.38;;
34896;SDS011;43407;51.828;-2.298;2023-05-10T08:45:02;6.80;;;2.50;;
34896;SDS011;43407;51.828;-2.298;2023-05-10T08:47:28;5.55;;;2.15;;
34896;SDS011;43407;51.828;-2.298;2023-05-10T08:49:54;4.90;;;2.08;;
34896;SDS011;43407;51.828;-2.298;2023-05-10T08:52:19;4.43;;;1.80;;
34896;SDS011;43407;51.828;-2.298;2023-05-10T08:54:47;7.65;;;2.20;;
34896;SDS011;43407;51.828;-2.298;2023-05-10T08:57:12;7.85;;;2.53;;
34896;SDS011;43407;51.828;-2.298;2023-05-10T08:59:38;4.35;;;1.73;;
34896;SDS011;43407;51.828;-2.298;2023-05-10T09:02:05;7.65;;;1.80;;
34896;SDS011;43407;51.828;-2.298;2023-05-10T09:04:31;5.80;;;2.03;;
34896;SDS011;43407;51.828;-2.298;2023-05-10T09:06:56;5.80;;;1.77;;
34896;SDS011;43407;51.828;-2.298;2023-05-10T09:09:22;4.85;;;1.90;;
34896;SDS011;43407;51.828;-2.298;2023-05-10T09:11:49;3.97;;;1.65;;
34896;SDS011;43407;51.828;-2.298;2023-05-10T09:14:15;6.45;;;2.20;;
34896;SDS011;43407;51.828;-2.298;2023-05-10T09:16:40;7.25;;;2.15;;
34896;SDS011;43407;51.828;-2.298;2023-05-10T09:19:06;5.53;;;1.77;;
34896;SDS011;43407;51.828;-2.298;2023-05-10T09:21:34;4.38;;;1.55;;
34896;SDS011;43407;51.828;-2.298;2023-05-10T09:24:06;3.75;;;1.65;;
34896;SDS011;43407;51.828;-2.298;2023-05-10T09:26:33;7.60;;;2.05;;
34896;SDS011;43407;51.828;-2.298;2023-05-10T09:29:00;3.60;;;1.70;;
34896;SDS011;43407;51.828;-2.298;2023-05-10T09:34:16;2.85;;;1.20;;
34896;SDS011;43407;51.828;-2.298;2023-05-10T09:36:53;8.95;;;1.50;;
34896;SDS011;43407;51.828;-2.298;2023-05-10T09:39:19;4.63;;;1.50;;
34896;SDS011;43407;51.828;-2.298;2023-05-10T09:41:45;5.70;;;1.50;;
34896;SDS011;43407;51.828;-2.298;2023-05-10T09:44:10;3.85;;;1.23;;
34896;SDS011;43407;51.828;-2.298;2023-05-10T09:46:36;2.63;;;1.33;;
34896;SDS011;43407;51.828;-2.298;2023-05-10T09:49:02;4.72;;;1.65;;
34896;SDS011;43407;51.828;-2.298;2023-05-10T09:51:27;2.88;;;1.20;;
34896;SDS011;43407;51.828;-2.298;2023-05-10T09:54:14;2.50;;;1.45;;
34896;SDS011;43407;51.828;-2.298;2023-05-10T09:56:39;5.00;;;2.33;;
34896;SDS011;43407;51.828;-2.298;2023-05-10T09:59:06;5.47;;;2.50;;
34896;SDS011;43407;51.828;-2.298;2023-05-10T10:01:33;4.93;;;2.20;;
34896;SDS011;43407;51.828;-2.298;2023-05-10T10:03:59;8.35;;;2.38;;
34896;SDS011;43407;51.828;-2.298;2023-05-10T10:06:28;2.47;;;1.27;;
34896;SDS011;43407;51.828;-2.298;2023-05-10T10:08:54;3.15;;;1.20;;
34896;SDS011;43407;51.828;-2.298;2023-05-10T10:11:20;3.75;;;1.15;;
34896;SDS011;43407;51.828;-2.298;2023-05-10T10:13:45;3.03;;;1.58;;
34896;SDS011;43407;51.828;-2.298;2023-05-10T10:16:11;4.28;;;1.75;;
34896;SDS011;43407;51.828;-2.298;2023-05-10T10:18:36;3.67;;;1.60;;
34896;SDS011;43407;51.828;-2.298;2023-05-10T10:21:06;6.32;;;1.63;;
34896;SDS011;43407;51.828;-2.298;2023-05-10T10:23:34;5.95;;;1.77;;
34896;SDS011;43407;51.828;-2.298;2023-05-10T10:26:00;5.75;;;1.77;;
34896;SDS011;43407;51.828;-2.298;2023-05-10T10:34:08;4.57;;;1.63;;
34896;SDS011;43407;51.828;-2.298;2023-05-10T10:36:45;5.05;;;1.90;;
34896;SDS011;43407;51.828;-2.298;2023-05-10T10:39:12;5.25;;;2.22;;
34896;SDS011;43407;51.828;-2.298;2023-05-10T10:41:56;6.72;;;2.45;;
34896;SDS011;43407;51.828;-2.298;2023-05-10T11:02:49;10.05;;;3.03;;
34896;SDS011;43407;51.828;-2.298;2023-05-10T11:07:53;9.23;;;2.83;;
34896;SDS011;43407;51.828;-2.298;2023-05-10T11:10:23;10.48;;;2.53;;
34896;SDS011;43407;51.828;-2.298;2023-05-10T11:13:05;9.65;;;2.67;;
34896;SDS011;43407;51.828;-2.298;2023-05-10T11:15:36;9.17;;;2.80;;
34896;SDS011;43407;51.828;-2.298;2023-05-10T11:20:59;8.90;;;2.97;;
34896;SDS011;43407;51.828;-2.298;2023-05-10T11:23:31;8.50;;;2.85;;
34896;SDS011;43407;51.828;-2.298;2023-05-10T11:26:01;10.23;;;3.13;;
34896;SDS011;43407;51.828;-2.298;2023-05-10T11:28:26;10.50;;;3.38;;
34896;SDS011;43407;51.828;-2.298;2023-05-10T11:30:53;8.93;;;2.95;;
34896;SDS011;43407;51.828;-2.298;2023-05-10T11:33:19;9.18;;;3.15;;
34896;SDS011;43407;51.828;-2.298;2023-05-10T11:35:45;7.72;;;2.67;;
34896;SDS011;43407;51.828;-2.298;2023-05-10T11:38:11;6.60;;;2.65;;
34896;SDS011;43407;51.828;-2.298;2023-05-10T11:40:38;7.95;;;2.45;;
34896;SDS011;43407;51.828;-2.298;2023-05-10T11:43:04;11.27;;;2.97;;
34896;SDS011;43407;51.828;-2.298;2023-05-10T11:45:33;8.52;;;2.65;;
34896;SDS011;43407;51.828;-2.298;2023-05-10T11:47:59;7.93;;;2.70;;
34896;SDS011;43407;51.828;-2.298;2023-05-10T11:50:25;6.05;;;2.40;;
34896;SDS011;43407;51.828;-2.298;2023-05-10T11:52:54;5.40;;;2.20;;
34896;SDS011;43407;51.828;-2.298;2023-05-10T11:55:21;6.65;;;2.35;;
34896;SDS011;43407;51.828;-2.298;2023-05-10T11:57:46;7.22;;;2.45;;
34896;SDS011;43407;51.828;-2.298;2023-05-10T12:00:13;6.53;;;2.33;;
34896;SDS011;43407;51.828;-2.298;2023-05-10T12:02:39;6.82;;;2.55;;
34896;SDS011;43407;51.828;-2.298;2023-05-10T12:05:04;6.65;;;2.20;;
34896;SDS011;43407;51.828;-2.298;2023-05-10T12:07:31;6.03;;;2.20;;
34896;SDS011;43407;51.828;-2.298;2023-05-10T12:10:09;5.65;;;1.92;;
34896;SDS011;43407;51.828;-2.298;2023-05-10T12:12:37;6.45;;;2.40;;
34896;SDS011;43407;51.828;-2.298;2023-05-10T12:15:04;6.03;;;1.88;;
34896;SDS011;43407;51.828;-2.298;2023-05-10T12:17:31;6.07;;;2.67;;
34896;SDS011;43407;51.828;-2.298;2023-05-10T12:20:12;5.63;;;2.13;;
34896;SDS011;43407;51.828;-2.298;2023-05-10T12:22:46;6.15;;;1.92;;
34896;SDS011;43407;51.828;-2.298;2023-05-10T12:25:15;6.38;;;2.00;;
34896;SDS011;43407;51.828;-2.298;2023-05-10T12:27:46;4.60;;;2.05;;
34896;SDS011;43407;51.828;-2.298;2023-05-10T12:30:18;3.20;;;1.48;;
34896;SDS011;43407;51.828;-2.298;2023-05-10T12:32:53;5.35;;;2.10;;
34896;SDS011;43407;51.828;-2.298;2023-05-10T12:35:20;4.22;;;1.83;;
34896;SDS011;43407;51.828;-2.298;2023-05-10T12:37:47;5.35;;;1.77;;
34896;SDS011;43407;51.828;-2.298;2023-05-10T12:40:13;5.90;;;2.10;;
34896;SDS011;43407;51.828;-2.298;2023-05-10T12:42:38;2.90;;;1.50;;
34896;SDS011;43407;51.828;-2.298;2023-05-10T12:45:05;4.00;;;1.55;;
34896;SDS011;43407;51.828;-2.298;2023-05-10T12:47:32;4.00;;;1.58;;
34896;SDS011;43407;51.828;-2.298;2023-05-10T12:49:57;5.53;;;1.85;;
34896;SDS011;43407;51.828;-2.298;2023-05-10T12:52:24;6.63;;;1.90;;
34896;SDS011;43407;51.828;-2.298;2023-05-10T12:54:51;11.77;;;2.95;;
34896;SDS011;43407;51.828;-2.298;2023-05-10T12:57:17;8.75;;;2.80;;
34896;SDS011;43407;51.828;-2.298;2023-05-10T12:59:43;10.90;;;2.80;;
34896;SDS011;43407;51.828;-2.298;2023-05-10T13:02:08;8.07;;;2.80;;
34896;SDS011;43407;51.828;-2.298;2023-05-10T13:04:34;6.40;;;2.88;;
34896;SDS011;43407;51.828;-2.298;2023-05-10T13:07:04;9.73;;;2.72;;
34896;SDS011;43407;51.828;-2.298;2023-05-10T13:09:30;10.38;;;2.83;;
34896;SDS011;43407;51.828;-2.298;2023-05-10T13:11:55;8.77;;;2.67;;
34896;SDS011;43407;51.828;-2.298;2023-05-10T13:14:20;9.68;;;2.72;;
34896;SDS011;43407;51.828;-2.298;2023-05-10T13:16:46;10.88;;;3.00;;
34896;SDS011;43407;51.828;-2.298;2023-05-10T13:19:12;8.77;;;2.75;;
34896;SDS011;43407;51.828;-2.298;2023-05-10T13:21:38;10.07;;;3.10;;
34896;SDS011;43407;51.828;-2.298;2023-05-10T13:24:06;12.95;;;3.78;;
34896;SDS011;43407;51.828;-2.298;2023-05-10T13:26:32;14.30;;;3.67;;
34896;SDS011;43407;51.828;-2.298;2023-05-10T13:28:57;11.93;;;2.75;;
34896;SDS011;43407;51.828;-2.298;2023-05-10T13:31:23;6.35;;;1.98;;
34896;SDS011;43407;51.828;-2.298;2023-05-10T13:33:48;2.53;;;1.10;;
34896;SDS011;43407;51.828;-2.298;2023-05-10T13:36:14;1.67;;;0.90;;
34896;SDS011;43407;51.828;-2.298;2023-05-10T13:38:39;1.08;;;0.60;;
34896;SDS011;43407;51.828;-2.298;2023-05-10T13:41:05;1.90;;;0.90;;
34896;SDS011;43407;51.828;-2.298;2023-05-10T13:43:30;1.08;;;0.60;;
34896;SDS011;43407;51.828;-2.298;2023-05-10T13:45:56;3.53;;;0.70;;
34896;SDS011;43407;51.828;-2.298;2023-05-10T13:48:21;1.17;;;0.60;;
34896;SDS011;43407;51.828;-2.298;2023-05-10T13:50:47;1.40;;;0.60;;
34896;SDS011;43407;51.828;-2.298;2023-05-10T13:53:12;2.05;;;0.70;;
34896;SDS011;43407;51.828;-2.298;2023-05-10T13:55:39;1.75;;;0.40;;
34896;SDS011;43407;51.828;-2.298;2023-05-10T13:58:04;2.55;;;0.60;;
34896;SDS011;43407;51.828;-2.298;2023-05-10T14:00:30;1.90;;;0.57;;
34896;SDS011;43407;51.828;-2.298;2023-05-10T14:02:56;1.35;;;0.60;;
34896;SDS011;43407;51.828;-2.298;2023-05-10T14:05:21;0.88;;;0.60;;
34896;SDS011;43407;51.828;-2.298;2023-05-10T14:07:48;1.25;;;0.60;;
34896;SDS011;43407;51.828;-2.298;2023-05-10T14:10:13;1.42;;;0.68;;
34896;SDS011;43407;51.828;-2.298;2023-05-10T14:12:39;1.65;;;0.73;;
34896;SDS011;43407;51.828;-2.298;2023-05-10T14:15:05;1.77;;;0.75;;
34896;SDS011;43407;51.828;-2.298;2023-05-10T14:17:31;2.22;;;1.00;;
34896;SDS011;43407;51.828;-2.298;2023-05-10T14:19:57;2.55;;;1.00;;
34896;SDS011;43407;51.828;-2.298;2023-05-10T14:22:22;2.97;;;1.38;;
34896;SDS011;43407;51.828;-2.298;2023-05-10T14:24:48;6.28;;;2.22;;
34896;SDS011;43407;51.828;-2.298;2023-05-10T14:27:14;5.05;;;2.42;;
34896;SDS011;43407;51.828;-2.298;2023-05-10T14:29:40;7.90;;;2.20;;
34896;SDS011;43407;51.828;-2.298;2023-05-10T14:32:05;7.00;;;2.10;;
34896;SDS011;43407;51.828;-2.298;2023-05-10T14:34:31;7.95;;;2.20;;
34896;SDS011;43407;51.828;-2.298;2023-05-10T14:36:57;9.52;;;2.38;;
34896;SDS011;43407;51.828;-2.298;2023-05-10T14:39:22;6.25;;;2.10;;
34896;SDS011;43407;51.828;-2.298;2023-05-10T14:41:48;6.90;;;2.42;;
34896;SDS011;43407;51.828;-2.298;2023-05-10T14:44:13;7.00;;;2.08;;
34896;SDS011;43407;51.828;-2.298;2023-05-10T14:46:40;4.07;;;1.90;;
34896;SDS011;43407;51.828;-2.298;2023-05-10T14:49:06;3.80;;;1.67;;
34896;SDS011;43407;51.828;-2.298;2023-05-10T14:51:32;5.80;;;2.00;;
34896;SDS011;43407;51.828;-2.298;2023-05-10T14:53:58;5.28;;;2.30;;
34896;SDS011;43407;51.828;-2.298;2023-05-10T14:56:23;4.95;;;1.58;;
34896;SDS011;43407;51.828;-2.298;2023-05-10T14:58:49;3.72;;;1.58;;
34896;SDS011;43407;51.828;-2.298;2023-05-10T15:01:15;4.38;;;1.40;;
34896;SDS011;43407;51.828;-2.298;2023-05-10T15:03:40;2.97;;;1.55;;
34896;SDS011;43407;51.828;-2.298;2023-05-10T15:06:07;3.78;;;1.60;;
34896;SDS011;43407;51.828;-2.298;2023-05-10T15:08:33;3.75;;;1.70;;
34896;SDS011;43407;51.828;-2.298;2023-05-10T15:10:58;3.85;;;1.85;;
34896;SDS011;43407;51.828;-2.298;2023-05-10T15:13:24;4.85;;;1.73;;
34896;SDS011;43407;51.828;-2.298;2023-05-10T15:15:49;4.57;;;2.00;;